sensor_id;sensor_type;location;lat;lon;timestamp;temperature;humidity
40534;DHT22;26233;51.894;10.192;2022-07-15T00:00:04;17.00;34.90
40534;DHT22;26233;51.894;10.192;2022-07-15T00:02:33;16.90;35.00
40534;DHT22;26233;51.894;10.192;2022-07-15T00:05:00;16.90;35.20
40534;DHT22;26233;51.894;10.192;2022-07-15T00:07:28;16.90;35.20
40534;DHT22;26233;51.894;10.192;2022-07-15T00:09:56;16.90;35.20
40534;DHT22;26233;51.894;10.192;2022-07-15T00:12:45;17.00;35.40
40534;DHT22;26233;51.894;10.192;2022-07-15T00:15:14;16.80;35.20
40534;DHT22;26233;51.894;10.192;2022-07-15T00:17:43;16.80;35.30
40534;DHT22;26233;51.894;10.192;2022-07-15T00:20:12;16.70;35.30
40534;DHT22;26233;51.894;10.192;2022-07-15T00:22:40;16.70;35.30
40534;DHT22;26233;51.894;10.192;2022-07-15T00:25:11;16.70;35.40
40534;DHT22;26233;51.894;10.192;2022-07-15T00:27:50;16.70;35.60
40534;DHT22;26233;51.894;10.192;2022-07-15T00:30:18;16.70;36.00
40534;DHT22;26233;51.894;10.192;2022-07-15T00:32:46;16.70;35.60
40534;DHT22;26233;51.894;10.192;2022-07-15T00:35:14;16.60;35.50
40534;DHT22;26233;51.894;10.192;2022-07-15T00:37:41;16.60;35.60
40534;DHT22;26233;51.894;10.192;2022-07-15T00:40:11;16.60;35.70
40534;DHT22;26233;51.894;10.192;2022-07-15T00:42:39;16.60;35.90
40534;DHT22;26233;51.894;10.192;2022-07-15T00:45:14;16.50;35.80
40534;DHT22;26233;51.894;10.192;2022-07-15T00:47:43;16.50;35.90
40534;DHT22;26233;51.894;10.192;2022-07-15T00:50:14;16.50;36.10
40534;DHT22;26233;51.894;10.192;2022-07-15T00:52:48;16.50;36.20
40534;DHT22;26233;51.894;10.192;2022-07-15T00:55:18;16.50;36.50
40534;DHT22;26233;51.894;10.192;2022-07-15T00:57:51;16.50;36.40
40534;DHT22;26233;51.894;10.192;2022-07-15T01:00:19;16.50;36.30
40534;DHT22;26233;51.894;10.192;2022-07-15T01:02:46;16.50;36.50
40534;DHT22;26233;51.894;10.192;2022-07-15T01:05:17;16.50;36.60
40534;DHT22;26233;51.894;10.192;2022-07-15T01:07:45;16.50;36.60
40534;DHT22;26233;51.894;10.192;2022-07-15T01:10:12;16.50;36.60
40534;DHT22;26233;51.894;10.192;2022-07-15T01:12:41;16.60;36.70
40534;DHT22;26233;51.894;10.192;2022-07-15T01:15:09;16.50;36.80
40534;DHT22;26233;51.894;10.192;2022-07-15T01:17:37;16.60;36.80
40534;DHT22;26233;51.894;10.192;2022-07-15T01:20:05;16.60;37.00
40534;DHT22;26233;51.894;10.192;2022-07-15T01:22:34;16.60;36.90
40534;DHT22;26233;51.894;10.192;2022-07-15T01:25:04;16.60;37.00
40534;DHT22;26233;51.894;10.192;2022-07-15T01:27:32;16.60;37.20
40534;DHT22;26233;51.894;10.192;2022-07-15T01:30:00;16.60;37.20
40534;DHT22;26233;51.894;10.192;2022-07-15T01:32:27;16.60;37.30
40534;DHT22;26233;51.894;10.192;2022-07-15T01:34:54;16.60;37.40
40534;DHT22;26233;51.894;10.192;2022-07-15T01:37:24;16.70;37.40
40534;DHT22;26233;51.894;10.192;2022-07-15T01:39:52;16.70;37.50
40534;DHT22;26233;51.894;10.192;2022-07-15T01:42:20;16.70;37.70
40534;DHT22;26233;51.894;10.192;2022-07-15T01:44:47;16.70;37.60
40534;DHT22;26233;51.894;10.192;2022-07-15T01:47:14;16.80;37.80
40534;DHT22;26233;51.894;10.192;2022-07-15T01:49:41;16.80;38.10
40534;DHT22;26233;51.894;10.192;2022-07-15T01:52:09;16.90;37.90
40534;DHT22;26233;51.894;10.192;2022-07-15T01:54:36;16.90;37.90
40534;DHT22;26233;51.894;10.192;2022-07-15T01:57:05;16.90;37.90
40534;DHT22;26233;51.894;10.192;2022-07-15T01:59:32;16.90;37.90
40534;DHT22;26233;51.894;10.192;2022-07-15T02:01:59;16.90;37.90
40534;DHT22;26233;51.894;10.192;2022-07-15T02:04:26;17.00;38.00
40534;DHT22;26233;51.894;10.192;2022-07-15T02:06:54;17.00;38.10
40534;DHT22;26233;51.894;10.192;2022-07-15T02:09:21;17.00;38.00
40534;DHT22;26233;51.894;10.192;2022-07-15T02:11:48;17.00;38.00
40534;DHT22;26233;51.894;10.192;2022-07-15T02:14:17;16.80;38.00
40534;DHT22;26233;51.894;10.192;2022-07-15T02:16:44;17.00;38.20
40534;DHT22;26233;51.894;10.192;2022-07-15T02:19:12;17.00;38.20
40534;DHT22;26233;51.894;10.192;2022-07-15T02:21:41;17.00;38.10
40534;DHT22;26233;51.894;10.192;2022-07-15T02:24:09;17.10;38.20
40534;DHT22;26233;51.894;10.192;2022-07-15T02:26:36;17.10;38.40
40534;DHT22;26233;51.894;10.192;2022-07-15T02:29:03;17.10;38.40
40534;DHT22;26233;51.894;10.192;2022-07-15T02:31:31;17.10;38.40
40534;DHT22;26233;51.894;10.192;2022-07-15T02:34:00;17.10;38.40
40534;DHT22;26233;51.894;10.192;2022-07-15T02:36:28;17.20;38.50
40534;DHT22;26233;51.894;10.192;2022-07-15T02:38:56;17.20;38.50
40534;DHT22;26233;51.894;10.192;2022-07-15T02:41:23;17.20;38.40
40534;DHT22;26233;51.894;10.192;2022-07-15T02:43:51;17.20;38.40
40534;DHT22;26233;51.894;10.192;2022-07-15T02:46:18;17.20;38.40
40534;DHT22;26233;51.894;10.192;2022-07-15T02:48:46;17.30;38.50
40534;DHT22;26233;51.894;10.192;2022-07-15T02:51:14;17.30;38.60
40534;DHT22;26233;51.894;10.192;2022-07-15T02:53:41;17.30;38.50
40534;DHT22;26233;51.894;10.192;2022-07-15T02:56:08;17.30;38.50
40534;DHT22;26233;51.894;10.192;2022-07-15T02:58:35;17.30;38.50
40534;DHT22;26233;51.894;10.192;2022-07-15T03:01:02;17.30;38.60
40534;DHT22;26233;51.894;10.192;2022-07-15T03:03:29;17.20;39.20
40534;DHT22;26233;51.894;10.192;2022-07-15T03:05:58;17.20;38.60
40534;DHT22;26233;51.894;10.192;2022-07-15T03:08:26;17.20;38.70
40534;DHT22;26233;51.894;10.192;2022-07-15T03:10:53;17.20;38.60
40534;DHT22;26233;51.894;10.192;2022-07-15T03:13:20;17.20;38.60
40534;DHT22;26233;51.894;10.192;2022-07-15T03:15:48;17.10;38.60
40534;DHT22;26233;51.894;10.192;2022-07-15T03:18:15;17.10;38.60
40534;DHT22;26233;51.894;10.192;2022-07-15T03:20:42;17.10;38.70
40534;DHT22;26233;51.894;10.192;2022-07-15T03:23:13;17.10;38.80
40534;DHT22;26233;51.894;10.192;2022-07-15T03:25:42;17.00;38.70
40534;DHT22;26233;51.894;10.192;2022-07-15T03:28:09;17.00;38.80
40534;DHT22;26233;51.894;10.192;2022-07-15T03:30:36;17.00;38.80
40534;DHT22;26233;51.894;10.192;2022-07-15T03:33:04;17.00;38.90
40534;DHT22;26233;51.894;10.192;2022-07-15T03:35:31;17.00;38.90
40534;DHT22;26233;51.894;10.192;2022-07-15T03:37:58;17.00;38.90
40534;DHT22;26233;51.894;10.192;2022-07-15T03:40:27;17.00;39.00
40534;DHT22;26233;51.894;10.192;2022-07-15T03:42:58;17.00;39.00
40534;DHT22;26233;51.894;10.192;2022-07-15T03:45:25;17.00;39.10
40534;DHT22;26233;51.894;10.192;2022-07-15T03:47:52;17.00;39.10
40534;DHT22;26233;51.894;10.192;2022-07-15T03:50:19;17.00;39.20
40534;DHT22;26233;51.894;10.192;2022-07-15T03:52:46;16.90;39.10
40534;DHT22;26233;51.894;10.192;2022-07-15T03:55:13;17.00;39.20
40534;DHT22;26233;51.894;10.192;2022-07-15T03:57:42;17.00;39.30
40534;DHT22;26233;51.894;10.192;2022-07-15T04:00:09;17.00;39.40
40534;DHT22;26233;51.894;10.192;2022-07-15T04:02:37;16.90;39.30
40534;DHT22;26233;51.894;10.192;2022-07-15T04:05:05;16.90;39.20
40534;DHT22;26233;51.894;10.192;2022-07-15T04:07:33;16.90;39.20
40534;DHT22;26233;51.894;10.192;2022-07-15T04:10:00;17.00;39.40
40534;DHT22;26233;51.894;10.192;2022-07-15T04:12:27;17.00;39.50
40534;DHT22;26233;51.894;10.192;2022-07-15T04:14:56;16.90;39.50
40534;DHT22;26233;51.894;10.192;2022-07-15T04:17:23;17.00;39.70
40534;DHT22;26233;51.894;10.192;2022-07-15T04:19:50;17.00;39.70
40534;DHT22;26233;51.894;10.192;2022-07-15T04:22:17;17.00;39.70
40534;DHT22;26233;51.894;10.192;2022-07-15T04:24:44;17.00;39.80
40534;DHT22;26233;51.894;10.192;2022-07-15T04:27:11;17.10;39.80
40534;DHT22;26233;51.894;10.192;2022-07-15T04:29:38;17.10;40.40
40534;DHT22;26233;51.894;10.192;2022-07-15T04:32:10;17.10;39.70
40534;DHT22;26233;51.894;10.192;2022-07-15T04:34:37;17.10;39.70
40534;DHT22;26233;51.894;10.192;2022-07-15T04:37:04;17.10;39.60
40534;DHT22;26233;51.894;10.192;2022-07-15T04:39:31;17.10;39.50
40534;DHT22;26233;51.894;10.192;2022-07-15T04:41:58;17.10;39.50
40534;DHT22;26233;51.894;10.192;2022-07-15T04:44:25;17.00;39.40
40534;DHT22;26233;51.894;10.192;2022-07-15T04:46:53;17.00;39.40
40534;DHT22;26233;51.894;10.192;2022-07-15T04:49:21;17.00;39.40
40534;DHT22;26233;51.894;10.192;2022-07-15T04:52:06;16.90;39.50
40534;DHT22;26233;51.894;10.192;2022-07-15T04:54:33;16.90;39.40
40534;DHT22;26233;51.894;10.192;2022-07-15T04:57:00;16.90;39.50
40534;DHT22;26233;51.894;10.192;2022-07-15T04:59:29;16.90;39.40
40534;DHT22;26233;51.894;10.192;2022-07-15T05:01:57;16.90;39.50
40534;DHT22;26233;51.894;10.192;2022-07-15T05:04:26;16.90;39.50
40534;DHT22;26233;51.894;10.192;2022-07-15T05:06:53;16.90;39.50
40534;DHT22;26233;51.894;10.192;2022-07-15T05:09:20;16.90;39.50
40534;DHT22;26233;51.894;10.192;2022-07-15T05:11:47;16.90;39.40
40534;DHT22;26233;51.894;10.192;2022-07-15T05:14:16;16.90;39.50
40534;DHT22;26233;51.894;10.192;2022-07-15T05:16:43;16.90;39.50
40534;DHT22;26233;51.894;10.192;2022-07-15T05:19:11;16.90;39.50
40534;DHT22;26233;51.894;10.192;2022-07-15T05:21:40;16.90;39.50
40534;DHT22;26233;51.894;10.192;2022-07-15T05:24:07;17.00;39.70
40534;DHT22;26233;51.894;10.192;2022-07-15T05:26:34;16.90;39.50
40534;DHT22;26233;51.894;10.192;2022-07-15T05:29:01;17.00;39.70
40534;DHT22;26233;51.894;10.192;2022-07-15T05:31:28;17.00;39.50
40534;DHT22;26233;51.894;10.192;2022-07-15T05:33:56;17.00;39.60
40534;DHT22;26233;51.894;10.192;2022-07-15T05:36:23;17.00;39.70
40534;DHT22;26233;51.894;10.192;2022-07-15T05:38:54;17.00;39.80
40534;DHT22;26233;51.894;10.192;2022-07-15T05:41:21;17.10;39.90
40534;DHT22;26233;51.894;10.192;2022-07-15T05:43:48;17.10;39.90
40534;DHT22;26233;51.894;10.192;2022-07-15T05:46:15;17.20;40.00
40534;DHT22;26233;51.894;10.192;2022-07-15T05:48:42;17.30;40.10
40534;DHT22;26233;51.894;10.192;2022-07-15T05:51:10;17.30;40.10
40534;DHT22;26233;51.894;10.192;2022-07-15T05:53:37;17.40;40.20
40534;DHT22;26233;51.894;10.192;2022-07-15T05:56:06;17.50;40.20
40534;DHT22;26233;51.894;10.192;2022-07-15T05:58:34;17.60;40.30
40534;DHT22;26233;51.894;10.192;2022-07-15T06:01:01;17.70;40.20
40534;DHT22;26233;51.894;10.192;2022-07-15T06:03:29;17.80;40.10
40534;DHT22;26233;51.894;10.192;2022-07-15T06:05:56;17.90;40.10
40534;DHT22;26233;51.894;10.192;2022-07-15T06:08:23;18.00;40.10
40534;DHT22;26233;51.894;10.192;2022-07-15T06:10:50;18.00;40.10
40534;DHT22;26233;51.894;10.192;2022-07-15T06:13:19;18.10;40.20
40534;DHT22;26233;51.894;10.192;2022-07-15T06:15:46;18.20;40.20
40534;DHT22;26233;51.894;10.192;2022-07-15T06:18:13;18.30;40.20
40534;DHT22;26233;51.894;10.192;2022-07-15T06:20:40;18.40;40.20
40534;DHT22;26233;51.894;10.192;2022-07-15T06:23:07;18.50;40.20
40534;DHT22;26233;51.894;10.192;2022-07-15T06:25:35;18.60;40.20
40534;DHT22;26233;51.894;10.192;2022-07-15T06:28:02;18.60;40.00
40534;DHT22;26233;51.894;10.192;2022-07-15T06:30:31;18.60;39.90
40534;DHT22;26233;51.894;10.192;2022-07-15T06:33:01;18.70;40.00
40534;DHT22;26233;51.894;10.192;2022-07-15T06:35:28;18.80;40.10
40534;DHT22;26233;51.894;10.192;2022-07-15T06:37:55;18.80;40.00
40534;DHT22;26233;51.894;10.192;2022-07-15T06:40:24;18.90;40.00
40534;DHT22;26233;51.894;10.192;2022-07-15T06:42:52;18.90;40.00
40534;DHT22;26233;51.894;10.192;2022-07-15T06:45:19;18.90;40.00
40534;DHT22;26233;51.894;10.192;2022-07-15T06:47:48;19.00;39.90
40534;DHT22;26233;51.894;10.192;2022-07-15T06:50:15;19.00;39.90
40534;DHT22;26233;51.894;10.192;2022-07-15T06:52:42;19.00;39.80
40534;DHT22;26233;51.894;10.192;2022-07-15T06:55:09;19.10;39.80
40534;DHT22;26233;51.894;10.192;2022-07-15T06:57:37;19.10;39.70
40534;DHT22;26233;51.894;10.192;2022-07-15T07:00:07;19.10;39.70
40534;DHT22;26233;51.894;10.192;2022-07-15T07:02:35;19.10;39.60
40534;DHT22;26233;51.894;10.192;2022-07-15T07:05:05;19.10;39.50
40534;DHT22;26233;51.894;10.192;2022-07-15T07:07:33;19.10;39.50
40534;DHT22;26233;51.894;10.192;2022-07-15T07:10:01;19.10;39.50
40534;DHT22;26233;51.894;10.192;2022-07-15T07:12:28;19.10;39.50
40534;DHT22;26233;51.894;10.192;2022-07-15T07:14:55;19.10;39.50
40534;DHT22;26233;51.894;10.192;2022-07-15T07:17:22;19.10;40.10
40534;DHT22;26233;51.894;10.192;2022-07-15T07:19:50;19.10;39.30
40534;DHT22;26233;51.894;10.192;2022-07-15T07:22:18;19.10;39.40
40534;DHT22;26233;51.894;10.192;2022-07-15T07:24:45;19.10;39.40
40534;DHT22;26233;51.894;10.192;2022-07-15T07:27:13;19.10;39.50
40534;DHT22;26233;51.894;10.192;2022-07-15T07:29:40;19.10;39.60
40534;DHT22;26233;51.894;10.192;2022-07-15T07:32:07;19.20;39.60
40534;DHT22;26233;51.894;10.192;2022-07-15T07:34:34;19.20;39.80
40534;DHT22;26233;51.894;10.192;2022-07-15T07:37:01;19.30;39.80
40534;DHT22;26233;51.894;10.192;2022-07-15T07:39:30;19.40;39.70
40534;DHT22;26233;51.894;10.192;2022-07-15T07:41:57;19.40;39.50
40534;DHT22;26233;51.894;10.192;2022-07-15T07:44:24;19.50;39.40
40534;DHT22;26233;51.894;10.192;2022-07-15T07:46:51;19.50;39.40
40534;DHT22;26233;51.894;10.192;2022-07-15T07:49:18;19.60;39.40
40534;DHT22;26233;51.894;10.192;2022-07-15T07:51:45;19.60;39.50
40534;DHT22;26233;51.894;10.192;2022-07-15T07:54:13;19.80;39.90
40534;DHT22;26233;51.894;10.192;2022-07-15T07:56:41;20.00;40.30
40534;DHT22;26233;51.894;10.192;2022-07-15T07:59:10;20.30;40.60
40534;DHT22;26233;51.894;10.192;2022-07-15T08:01:37;20.60;40.40
40534;DHT22;26233;51.894;10.192;2022-07-15T08:04:05;20.90;39.80
40534;DHT22;26233;51.894;10.192;2022-07-15T08:06:32;21.10;39.30
40534;DHT22;26233;51.894;10.192;2022-07-15T08:09:00;21.20;39.00
40534;DHT22;26233;51.894;10.192;2022-07-15T08:11:27;21.30;38.40
40534;DHT22;26233;51.894;10.192;2022-07-15T08:13:56;21.30;38.00
40534;DHT22;26233;51.894;10.192;2022-07-15T08:16:26;21.20;37.70
40534;DHT22;26233;51.894;10.192;2022-07-15T08:18:53;21.20;37.50
40534;DHT22;26233;51.894;10.192;2022-07-15T08:21:20;21.20;37.40
40534;DHT22;26233;51.894;10.192;2022-07-15T08:23:48;21.10;37.30
40534;DHT22;26233;51.894;10.192;2022-07-15T08:26:15;21.10;37.30
40534;DHT22;26233;51.894;10.192;2022-07-15T08:28:48;21.00;37.20
40534;DHT22;26233;51.894;10.192;2022-07-15T08:31:17;21.00;37.10
40534;DHT22;26233;51.894;10.192;2022-07-15T08:33:45;21.00;37.10
40534;DHT22;26233;51.894;10.192;2022-07-15T08:36:13;21.00;37.20
40534;DHT22;26233;51.894;10.192;2022-07-15T08:38:41;21.10;37.20
40534;DHT22;26233;51.894;10.192;2022-07-15T08:41:08;21.10;37.40
40534;DHT22;26233;51.894;10.192;2022-07-15T08:43:35;21.20;38.10
40534;DHT22;26233;51.894;10.192;2022-07-15T08:46:02;21.40;37.70
40534;DHT22;26233;51.894;10.192;2022-07-15T08:48:36;21.50;37.30
40534;DHT22;26233;51.894;10.192;2022-07-15T08:51:06;21.60;37.20
40534;DHT22;26233;51.894;10.192;2022-07-15T08:53:34;21.70;37.10
40534;DHT22;26233;51.894;10.192;2022-07-15T08:56:02;21.70;36.80
40534;DHT22;26233;51.894;10.192;2022-07-15T08:58:30;21.70;36.50
40534;DHT22;26233;51.894;10.192;2022-07-15T09:00:57;21.90;37.20
40534;DHT22;26233;51.894;10.192;2022-07-15T09:03:25;22.00;37.30
40534;DHT22;26233;51.894;10.192;2022-07-15T09:05:53;22.10;36.90
40534;DHT22;26233;51.894;10.192;2022-07-15T09:08:20;22.20;36.40
40534;DHT22;26233;51.894;10.192;2022-07-15T09:10:49;22.10;35.90
40534;DHT22;26233;51.894;10.192;2022-07-15T09:13:29;22.10;35.40
40534;DHT22;26233;51.894;10.192;2022-07-15T09:15:59;22.00;35.10
40534;DHT22;26233;51.894;10.192;2022-07-15T09:18:29;21.90;35.40
40534;DHT22;26233;51.894;10.192;2022-07-15T09:21:01;21.80;35.50
40534;DHT22;26233;51.894;10.192;2022-07-15T09:23:30;21.80;35.40
40534;DHT22;26233;51.894;10.192;2022-07-15T09:26:00;21.70;35.40
40534;DHT22;26233;51.894;10.192;2022-07-15T09:28:54;21.70;35.30
40534;DHT22;26233;51.894;10.192;2022-07-15T09:31:29;21.60;35.20
40534;DHT22;26233;51.894;10.192;2022-07-15T09:34:14;21.40;35.00
40534;DHT22;26233;51.894;10.192;2022-07-15T09:36:44;21.30;35.10
40534;DHT22;26233;51.894;10.192;2022-07-15T09:39:17;21.30;35.10
40534;DHT22;26233;51.894;10.192;2022-07-15T09:41:45;21.20;35.10
40534;DHT22;26233;51.894;10.192;2022-07-15T09:44:15;21.10;35.20
40534;DHT22;26233;51.894;10.192;2022-07-15T09:46:48;21.10;35.20
40534;DHT22;26233;51.894;10.192;2022-07-15T09:49:30;21.00;35.30
40534;DHT22;26233;51.894;10.192;2022-07-15T09:52:04;21.00;35.50
40534;DHT22;26233;51.894;10.192;2022-07-15T09:54:34;21.00;35.40
40534;DHT22;26233;51.894;10.192;2022-07-15T09:57:06;21.10;35.40
40534;DHT22;26233;51.894;10.192;2022-07-15T09:59:34;21.10;35.10
40534;DHT22;26233;51.894;10.192;2022-07-15T10:02:02;21.10;35.00
40534;DHT22;26233;51.894;10.192;2022-07-15T10:04:30;21.20;34.90
40534;DHT22;26233;51.894;10.192;2022-07-15T10:06:59;21.10;34.60
40534;DHT22;26233;51.894;10.192;2022-07-15T10:09:29;21.10;34.60
40534;DHT22;26233;51.894;10.192;2022-07-15T10:12:00;21.10;34.70
40534;DHT22;26233;51.894;10.192;2022-07-15T10:14:56;21.00;34.60
40534;DHT22;26233;51.894;10.192;2022-07-15T10:17:51;21.30;35.00
40534;DHT22;26233;51.894;10.192;2022-07-15T10:20:45;21.40;35.00
40534;DHT22;26233;51.894;10.192;2022-07-15T10:23:46;21.50;34.90
40534;DHT22;26233;51.894;10.192;2022-07-15T10:26:32;21.70;35.00
40534;DHT22;26233;51.894;10.192;2022-07-15T10:29:07;21.90;35.20
40534;DHT22;26233;51.894;10.192;2022-07-15T10:31:38;22.00;35.30
40534;DHT22;26233;51.894;10.192;2022-07-15T10:34:17;22.20;35.20
40534;DHT22;26233;51.894;10.192;2022-07-15T10:39:53;22.50;34.80
40534;DHT22;26233;51.894;10.192;2022-07-15T10:42:23;22.70;34.80
40534;DHT22;26233;51.894;10.192;2022-07-15T10:45:07;22.80;35.10
40534;DHT22;26233;51.894;10.192;2022-07-15T10:47:34;23.00;35.20
40534;DHT22;26233;51.894;10.192;2022-07-15T10:50:35;23.40;36.20
40534;DHT22;26233;51.894;10.192;2022-07-15T10:53:19;23.80;35.50
40534;DHT22;26233;51.894;10.192;2022-07-15T10:55:50;24.10;34.90
40534;DHT22;26233;51.894;10.192;2022-07-15T10:58:17;24.30;34.60
40534;DHT22;26233;51.894;10.192;2022-07-15T11:00:45;24.20;33.90
40534;DHT22;26233;51.894;10.192;2022-07-15T11:03:15;24.20;33.50
40534;DHT22;26233;51.894;10.192;2022-07-15T11:06:05;24.00;33.00
40534;DHT22;26233;51.894;10.192;2022-07-15T11:08:49;23.80;32.70
40534;DHT22;26233;51.894;10.192;2022-07-15T11:11:47;23.50;32.30
40534;DHT22;26233;51.894;10.192;2022-07-15T11:14:46;23.20;32.40
40534;DHT22;26233;51.894;10.192;2022-07-15T11:17:18;22.90;32.20
40534;DHT22;26233;51.894;10.192;2022-07-15T11:19:48;22.60;32.20
40534;DHT22;26233;51.894;10.192;2022-07-15T11:22:18;22.30;32.10
40534;DHT22;26233;51.894;10.192;2022-07-15T11:24:46;22.10;32.30
40534;DHT22;26233;51.894;10.192;2022-07-15T11:27:16;21.90;32.50
40534;DHT22;26233;51.894;10.192;2022-07-15T11:29:45;21.80;32.60
40534;DHT22;26233;51.894;10.192;2022-07-15T11:32:15;21.70;32.90
40534;DHT22;26233;51.894;10.192;2022-07-15T11:34:44;21.60;33.00
40534;DHT22;26233;51.894;10.192;2022-07-15T11:37:13;21.60;33.20
40534;DHT22;26233;51.894;10.192;2022-07-15T11:39:45;21.60;33.30
40534;DHT22;26233;51.894;10.192;2022-07-15T11:42:22;21.70;33.60
40534;DHT22;26233;51.894;10.192;2022-07-15T11:45:09;21.80;33.80
40534;DHT22;26233;51.894;10.192;2022-07-15T11:47:51;22.10;34.00
40534;DHT22;26233;51.894;10.192;2022-07-15T11:50:19;22.20;34.50
40534;DHT22;26233;51.894;10.192;2022-07-15T11:52:48;22.50;34.20
40534;DHT22;26233;51.894;10.192;2022-07-15T11:55:18;22.70;34.00
40534;DHT22;26233;51.894;10.192;2022-07-15T11:57:47;23.00;34.20
40534;DHT22;26233;51.894;10.192;2022-07-15T12:00:17;23.20;33.90
40534;DHT22;26233;51.894;10.192;2022-07-15T12:02:45;23.50;34.00
40534;DHT22;26233;51.894;10.192;2022-07-15T12:05:12;23.60;33.70
40534;DHT22;26233;51.894;10.192;2022-07-15T12:07:41;23.80;33.50
40534;DHT22;26233;51.894;10.192;2022-07-15T12:10:10;23.90;33.20
40534;DHT22;26233;51.894;10.192;2022-07-15T12:12:42;24.00;33.00
40534;DHT22;26233;51.894;10.192;2022-07-15T12:15:27;24.00;32.70
40534;DHT22;26233;51.894;10.192;2022-07-15T12:17:54;24.10;32.70
40534;DHT22;26233;51.894;10.192;2022-07-15T12:20:28;24.10;32.30
40534;DHT22;26233;51.894;10.192;2022-07-15T12:23:03;24.10;32.10
40534;DHT22;26233;51.894;10.192;2022-07-15T12:25:34;24.10;31.80
40534;DHT22;26233;51.894;10.192;2022-07-15T12:28:03;24.00;31.80
40534;DHT22;26233;51.894;10.192;2022-07-15T12:30:34;24.00;31.80
40534;DHT22;26233;51.894;10.192;2022-07-15T12:33:14;23.80;31.50
40534;DHT22;26233;51.894;10.192;2022-07-15T12:35:43;23.70;32.00
40534;DHT22;26233;51.894;10.192;2022-07-15T12:38:24;23.60;31.50
40534;DHT22;26233;51.894;10.192;2022-07-15T12:40:52;23.60;31.70
40534;DHT22;26233;51.894;10.192;2022-07-15T12:43:21;23.50;31.90
40534;DHT22;26233;51.894;10.192;2022-07-15T12:46:15;23.50;31.90
40534;DHT22;26233;51.894;10.192;2022-07-15T12:48:46;23.50;32.00
40534;DHT22;26233;51.894;10.192;2022-07-15T12:51:15;23.50;31.70
40534;DHT22;26233;51.894;10.192;2022-07-15T12:53:43;23.60;32.00
40534;DHT22;26233;51.894;10.192;2022-07-15T12:56:11;23.60;31.90
40534;DHT22;26233;51.894;10.192;2022-07-15T12:58:39;23.60;31.90
40534;DHT22;26233;51.894;10.192;2022-07-15T13:01:08;23.70;31.90
40534;DHT22;26233;51.894;10.192;2022-07-15T13:03:37;23.70;31.70
40534;DHT22;26233;51.894;10.192;2022-07-15T13:06:04;23.70;31.60
40534;DHT22;26233;51.894;10.192;2022-07-15T13:08:33;23.70;31.50
40534;DHT22;26233;51.894;10.192;2022-07-15T13:11:03;23.70;31.20
40534;DHT22;26233;51.894;10.192;2022-07-15T13:13:33;23.60;31.10
40534;DHT22;26233;51.894;10.192;2022-07-15T13:16:03;23.60;31.00
40534;DHT22;26233;51.894;10.192;2022-07-15T13:18:32;23.50;31.10
40534;DHT22;26233;51.894;10.192;2022-07-15T13:20:59;23.40;31.00
40534;DHT22;26233;51.894;10.192;2022-07-15T13:23:27;23.40;31.10
40534;DHT22;26233;51.894;10.192;2022-07-15T13:25:54;23.40;31.30
40534;DHT22;26233;51.894;10.192;2022-07-15T13:28:22;23.50;32.30
40534;DHT22;26233;51.894;10.192;2022-07-15T13:30:52;23.70;32.00
40534;DHT22;26233;51.894;10.192;2022-07-15T13:33:20;23.80;32.00
40534;DHT22;26233;51.894;10.192;2022-07-15T13:35:50;24.00;31.70
40534;DHT22;26233;51.894;10.192;2022-07-15T13:38:19;24.10;31.50
40534;DHT22;26233;51.894;10.192;2022-07-15T13:40:47;24.20;31.20
40534;DHT22;26233;51.894;10.192;2022-07-15T13:43:14;24.20;31.00
40534;DHT22;26233;51.894;10.192;2022-07-15T13:45:44;24.20;30.80
40534;DHT22;26233;51.894;10.192;2022-07-15T13:48:11;24.10;30.50
40534;DHT22;26233;51.894;10.192;2022-07-15T13:50:39;24.00;30.60
40534;DHT22;26233;51.894;10.192;2022-07-15T13:53:24;23.90;30.50
40534;DHT22;26233;51.894;10.192;2022-07-15T13:55:51;23.90;30.60
40534;DHT22;26233;51.894;10.192;2022-07-15T13:58:18;23.90;30.50
40534;DHT22;26233;51.894;10.192;2022-07-15T14:00:45;23.90;30.60
40534;DHT22;26233;51.894;10.192;2022-07-15T14:03:12;23.90;30.50
40534;DHT22;26233;51.894;10.192;2022-07-15T14:05:41;23.80;30.50
40534;DHT22;26233;51.894;10.192;2022-07-15T14:08:08;23.80;30.40
40534;DHT22;26233;51.894;10.192;2022-07-15T14:10:35;23.80;30.40
40534;DHT22;26233;51.894;10.192;2022-07-15T14:13:02;23.80;30.40
40534;DHT22;26233;51.894;10.192;2022-07-15T14:15:30;23.80;30.10
40534;DHT22;26233;51.894;10.192;2022-07-15T14:17:57;23.80;30.10
40534;DHT22;26233;51.894;10.192;2022-07-15T14:20:24;23.80;30.10
40534;DHT22;26233;51.894;10.192;2022-07-15T14:22:53;23.70;30.10
40534;DHT22;26233;51.894;10.192;2022-07-15T14:25:21;23.70;30.00
40534;DHT22;26233;51.894;10.192;2022-07-15T14:27:48;23.70;30.20
40534;DHT22;26233;51.894;10.192;2022-07-15T14:30:18;23.70;30.10
40534;DHT22;26233;51.894;10.192;2022-07-15T14:32:45;23.60;30.10
40534;DHT22;26233;51.894;10.192;2022-07-15T14:35:12;23.70;30.30
40534;DHT22;26233;51.894;10.192;2022-07-15T14:37:40;23.70;30.40
40534;DHT22;26233;51.894;10.192;2022-07-15T14:40:08;23.80;30.50
40534;DHT22;26233;51.894;10.192;2022-07-15T14:42:36;23.80;30.40
40534;DHT22;26233;51.894;10.192;2022-07-15T14:45:05;23.80;30.20
40534;DHT22;26233;51.894;10.192;2022-07-15T14:47:32;23.80;30.10
40534;DHT22;26233;51.894;10.192;2022-07-15T14:50:00;23.80;30.20
40534;DHT22;26233;51.894;10.192;2022-07-15T14:52:27;23.80;30.20
40534;DHT22;26233;51.894;10.192;2022-07-15T14:54:54;23.90;30.30
40534;DHT22;26233;51.894;10.192;2022-07-15T14:57:22;23.90;30.30
40534;DHT22;26233;51.894;10.192;2022-07-15T14:59:49;23.90;30.20
40534;DHT22;26233;51.894;10.192;2022-07-15T15:02:16;24.00;30.30
40534;DHT22;26233;51.894;10.192;2022-07-15T15:04:45;24.00;30.20
40534;DHT22;26233;51.894;10.192;2022-07-15T15:07:12;24.00;30.10
40534;DHT22;26233;51.894;10.192;2022-07-15T15:09:39;24.00;30.10
40534;DHT22;26233;51.894;10.192;2022-07-15T15:12:07;23.90;30.00
40534;DHT22;26233;51.894;10.192;2022-07-15T15:14:36;23.90;30.00
40534;DHT22;26233;51.894;10.192;2022-07-15T15:17:03;23.90;30.00
40534;DHT22;26233;51.894;10.192;2022-07-15T15:19:31;23.80;30.40
40534;DHT22;26233;51.894;10.192;2022-07-15T15:21:58;23.80;29.90
40534;DHT22;26233;51.894;10.192;2022-07-15T15:24:26;23.70;29.80
40534;DHT22;26233;51.894;10.192;2022-07-15T15:26:53;23.60;29.80
40534;DHT22;26233;51.894;10.192;2022-07-15T15:29:21;23.50;29.90
40534;DHT22;26233;51.894;10.192;2022-07-15T15:31:49;23.50;30.00